Time;durP1;ratioP1;P1;durP2;ratioP2;P2;SDS_P1;SDS_P2;PMS_P1;PMS_P2;Temp;Humidity;BMP_temperature;BMP_pressure;BME280_temperature;BME280_humidity;BME280_pressure;Samples;Min_cycle;Max_cycle;Signal;HPM_P1;HPM_P2
2023/09/04 00:01:25;;;;;;;1.80;1.70;;;;;;;-141.26;100.00;62741.75;5063809;28;20282;-67
2023/09/04 00:03:54;;;;;;;1.80;1.70;;;;;;;-141.26;100.00;62741.75;5081789;28;20234;-67
2023/09/04 00:06:21;;;;;;;2.00;1.90;;;;;;;-141.26;100.00;62741.75;5081805;28;20222;-67
2023/09/04 00:08:48;;;;;;;3.40;2.13;;;;;;;-141.26;100.00;62741.75;5063302;28;20222;-67
2023/09/04 00:11:15;;;;;;;1.83;1.73;;;;;;;-141.26;100.00;62741.75;5063685;28;20337;-67
2023/09/04 00:13:42;;;;;;;1.90;1.80;;;;;;;-141.26;100.00;62741.75;5063522;28;20221;-67
2023/09/04 00:16:09;;;;;;;2.73;1.93;;;;;;;-141.26;100.00;62741.75;5063482;28;20282;-66
2023/09/04 00:18:37;;;;;;;2.33;2.00;;;;;;;-141.26;100.00;62741.75;5063395;28;20222;-66
2023/09/04 00:21:06;;;;;;;3.20;2.20;;;;;;;-141.26;100.00;62741.75;5080261;28;20313;-67
2023/09/04 00:23:33;;;;;;;5.13;2.23;;;;;;;-141.26;100.00;62741.75;5063523;28;20237;-67
2023/09/04 00:25:59;;;;;;;2.07;1.93;;;;;;;-141.26;100.00;62741.75;5062535;28;20245;-67
2023/09/04 00:28:26;;;;;;;1.50;1.50;;;;;;;-141.26;100.00;62741.75;5080450;28;20210;-67
2023/09/04 00:30:56;;;;;;;1.70;1.60;;;;;;;-141.26;100.00;62741.75;5063639;28;20225;-67
2023/09/04 00:33:24;;;;;;;1.43;1.33;;;;;;;-141.26;100.00;62741.75;5063462;28;20230;-67
2023/09/04 00:35:52;;;;;;;1.70;1.60;;;;;;;-141.26;100.00;62741.75;5063418;28;20218;-66
2023/09/04 00:38:20;;;;;;;1.73;1.37;;;;;;;-141.26;100.00;62741.75;5063234;28;20229;-67
2023/09/04 00:40:47;;;;;;;1.60;1.50;;;;;;;-141.26;100.00;62741.75;5080088;28;20273;-67
2023/09/04 00:43:15;;;;;;;1.20;1.10;;;;;;;-141.26;100.00;62741.75;5063351;28;20214;-67
2023/09/04 00:45:44;;;;;;;1.40;1.40;;;;;;;-141.26;100.00;62741.75;5063110;28;20288;-66
2023/09/04 00:48:11;;;;;;;3.37;1.93;;;;;;;-141.26;100.00;62741.75;5063061;28;20291;-66
2023/09/04 00:50:40;;;;;;;1.87;1.77;;;;;;;-141.26;100.00;62741.75;5063426;28;20222;-66
2023/09/04 00:53:10;;;;;;;1.60;1.60;;;;;;;-141.26;100.00;62741.75;5063183;28;20238;-66
2023/09/04 00:55:38;;;;;;;2.23;2.03;;;;;;;-141.26;100.00;62741.75;5079837;28;20218;-66
2023/09/04 00:58:06;;;;;;;2.03;1.93;;;;;;;-141.26;100.00;62741.75;5079971;28;20222;-67
2023/09/04 01:00:33;;;;;;;2.67;2.47;;;;;;;-141.26;100.00;62741.75;5062906;28;20251;-66
2023/09/04 01:03:02;;;;;;;2.13;2.03;;;;;;;-141.26;100.00;62741.75;5079890;28;20292;-66
2023/09/04 01:05:32;;;;;;;3.50;2.17;;;;;;;-141.26;100.00;62741.75;5081230;28;20276;-66
2023/09/04 01:07:59;;;;;;;2.20;2.00;;;;;;;-141.26;100.00;62741.75;5081293;28;20218;-67
2023/09/04 01:10:34;;;;;;;2.00;1.80;;;;;;;-141.26;100.00;62741.75;5081388;28;20237;-67
2023/09/04 01:13:08;;;;;;;2.57;2.20;;;;;;;-141.26;100.00;62741.75;5081416;28;20293;-67
2023/09/04 01:15:36;;;;;;;1.93;1.83;;;;;;;-141.26;100.00;62741.75;5062906;28;20221;-67
2023/09/04 01:18:04;;;;;;;1.87;1.77;;;;;;;-141.26;100.00;62741.75;5079819;28;20432;-67
2023/09/04 01:20:33;;;;;;;2.00;1.90;;;;;;;-141.26;100.00;62741.75;5065294;28;20227;-67
2023/09/04 01:23:00;;;;;;;1.80;1.70;;;;;;;-141.26;100.00;62741.75;5066251;28;20316;-67
2023/09/04 01:25:42;;;;;;;1.93;1.83;;;;;;;-141.26;100.00;62741.75;5066096;28;20230;-67
2023/09/04 01:28:23;;;;;;;2.93;1.97;;;;;;;-141.26;100.00;62741.75;5084353;28;20231;-67
2023/09/04 01:30:57;;;;;;;2.00;1.90;;;;;;;-141.26;100.00;62741.75;5082825;28;20269;-67
2023/09/04 01:33:30;;;;;;;2.13;2.03;;;;;;;-141.26;100.00;62741.75;5066272;28;20237;-67
2023/09/04 01:36:04;;;;;;;2.00;1.80;;;;;;;-141.26;100.00;62741.75;5066150;28;20217;-67
2023/09/04 01:38:33;;;;;;;2.00;1.90;;;;;;;-141.26;100.00;62741.75;5066131;28;20210;-67
2023/09/04 01:41:00;;;;;;;2.10;1.97;;;;;;;-141.26;100.00;62741.75;5082701;28;20296;-67
2023/09/04 01:43:27;;;;;;;3.00;2.20;;;;;;;-141.26;100.00;62741.75;5065825;28;20314;-67
2023/09/04 01:45:54;;;;;;;2.40;1.80;;;;;;;-141.26;100.00;62741.75;5082602;28;20303;-67
2023/09/04 01:48:22;;;;;;;2.87;2.13;;;;;;;-141.26;100.00;62741.75;5084195;28;20215;-67
2023/09/04 01:50:49;;;;;;;2.23;2.10;;;;;;;-141.26;100.00;62741.75;5065818;28;20222;-67
2023/09/04 01:53:17;;;;;;;2.10;2.00;;;;;;;-141.26;100.00;62741.75;5065679;28;20217;-67
2023/09/04 01:55:44;;;;;;;1.70;1.60;;;;;;;-141.26;100.00;62741.75;5065834;28;20222;-67
2023/09/04 01:58:13;;;;;;;1.60;1.50;;;;;;;-141.26;100.00;62741.75;5065793;28;20279;-67
2023/09/04 02:00:40;;;;;;;1.60;1.50;;;;;;;-141.26;100.00;62741.75;5065534;28;20276;-67
2023/09/04 02:03:07;;;;;;;1.60;1.50;;;;;;;-141.26;100.00;62741.75;5082440;28;20226;-67
2023/09/04 02:05:38;;;;;;;1.90;1.57;;;;;;;-141.26;100.00;62741.75;5065450;28;20317;-67
2023/09/04 02:08:07;;;;;;;1.47;1.37;;;;;;;-141.26;100.00;62741.75;5082489;28;20214;-67
2023/09/04 02:10:36;;;;;;;1.73;1.63;;;;;;;-141.26;100.00;62741.75;5065601;28;20313;-67
2023/09/04 02:13:03;;;;;;;1.80;1.70;;;;;;;-141.26;100.00;62741.75;5065204;28;20223;-67
2023/09/04 02:15:31;;;;;;;2.00;1.80;;;;;;;-141.26;100.00;62741.75;5083729;28;20295;-67
2023/09/04 02:18:02;;;;;;;1.70;1.60;;;;;;;-141.26;100.00;62741.75;5065386;28;20272;-67
2023/09/04 02:20:30;;;;;;;1.70;1.60;;;;;;;-141.26;100.00;62741.75;5065589;28;20246;-67
2023/09/04 02:22:57;;;;;;;1.77;1.67;;;;;;;-141.26;100.00;62741.75;5082199;28;20244;-67
2023/09/04 02:25:25;;;;;;;2.33;2.13;;;;;;;-141.26;100.00;62741.75;5065160;28;20230;-67
2023/09/04 02:27:56;;;;;;;2.00;1.80;;;;;;;-141.26;100.00;62741.75;5064626;28;20238;-67
2023/09/04 02:30:23;;;;;;;1.67;1.57;;;;;;;-141.26;100.00;62741.75;5064770;28;20222;-67
2023/09/04 02:32:50;;;;;;;1.37;1.30;;;;;;;-141.26;100.00;62741.75;5064983;28;20306;-67
2023/09/04 02:35:18;;;;;;;2.27;1.73;;;;;;;-141.26;100.00;62741.75;5081895;28;20225;-67
2023/09/04 02:37:45;;;;;;;2.07;1.87;;;;;;;-141.26;100.00;62741.75;5065046;28;20218;-67
2023/09/04 02:40:13;;;;;;;2.73;2.00;;;;;;;-141.26;100.00;62741.75;5065056;28;20250;-67
2023/09/04 02:42:40;;;;;;;2.30;2.10;;;;;;;-141.26;100.00;62741.75;5064845;28;20226;-67
2023/09/04 02:45:10;;;;;;;2.10;2.00;;;;;;;-141.26;100.00;62741.75;5081754;28;20226;-67
2023/09/04 02:47:38;;;;;;;2.50;2.30;;;;;;;-141.26;100.00;62741.75;5064808;28;20229;-67
2023/09/04 02:50:06;;;;;;;3.30;2.13;;;;;;;-141.26;100.00;62741.75;5064818;28;20214;-67
2023/09/04 02:52:34;;;;;;;2.43;2.10;;;;;;;-141.26;100.00;62741.75;5081716;28;20218;-67
2023/09/04 02:55:02;;;;;;;2.37;2.17;;;;;;;-141.26;100.00;62741.75;5064759;28;20225;-66
2023/09/04 02:57:30;;;;;;;3.50;2.83;;;;;;;-141.26;100.00;62741.75;5064681;28;20233;-67
2023/09/04 02:59:58;;;;;;;2.53;2.17;;;;;;;-141.26;100.00;62741.75;5082879;28;20224;-67
2023/09/04 03:02:27;;;;;;;2.60;2.13;;;;;;;-141.26;100.00;62741.75;5081571;28;20217;-67
2023/09/04 03:04:55;;;;;;;2.27;2.07;;;;;;;-141.26;100.00;62741.75;5081494;28;20222;-67
2023/09/04 03:07:25;;;;;;;2.03;1.83;;;;;;;-141.26;100.00;62741.75;5064634;28;20328;-67
2023/09/04 03:09:56;;;;;;;2.53;2.20;;;;;;;-141.26;100.00;62741.75;5064408;28;20233;-67
2023/09/04 03:12:24;;;;;;;2.87;2.27;;;;;;;-141.26;100.00;62741.75;5064515;28;20268;-67
2023/09/04 03:14:57;;;;;;;2.37;2.03;;;;;;;-141.26;100.00;62741.75;5064465;28;20210;-67
2023/09/04 03:17:27;;;;;;;2.50;2.30;;;;;;;-141.26;100.00;62741.75;5064385;28;20223;-67
2023/09/04 03:19:57;;;;;;;2.40;2.10;;;;;;;-141.26;100.00;62741.75;5064712;28;20229;-67
2023/09/04 03:22:24;;;;;;;2.97;2.77;;;;;;;-141.26;100.00;62741.75;5081274;28;20218;-67
2023/09/04 03:24:52;;;;;;;3.07;2.87;;;;;;;-141.26;100.00;62741.75;5082561;28;20226;-67
2023/09/04 03:27:21;;;;;;;3.80;2.97;;;;;;;-141.26;100.00;62741.75;5063457;28;20245;-67
2023/09/04 03:29:48;;;;;;;5.20;3.30;;;;;;;-141.26;100.00;62741.75;5064196;28;20221;-67
2023/09/04 03:32:16;;;;;;;5.10;4.03;;;;;;;-141.26;100.00;62741.75;5064177;28;20248;-67
2023/09/04 03:34:45;;;;;;;8.23;5.00;;;;;;;-141.26;100.00;62741.75;5064258;28;20284;-67
2023/09/04 03:37:12;;;;;;;5.63;4.60;;;;;;;-141.26;100.00;62741.75;5064005;28;20317;-67
2023/09/04 03:39:39;;;;;;;7.53;5.50;;;;;;;-141.26;100.00;62741.75;5064149;28;20214;-67
2023/09/04 03:42:08;;;;;;;6.63;5.57;;;;;;;-141.26;100.00;62741.75;5080187;28;20241;-67
2023/09/04 03:44:35;;;;;;;30.33;6.97;;;;;;;-141.26;100.00;62741.75;5064091;28;20218;-67
2023/09/04 03:47:02;;;;;;;18.07;6.80;;;;;;;-141.26;100.00;62741.75;5063745;28;20308;-67
2023/09/04 03:49:30;;;;;;;6.60;6.00;;;;;;;-141.26;100.00;62741.75;5063823;28;20268;-67
2023/09/04 03:51:59;;;;;;;6.00;5.43;;;;;;;-141.26;100.00;62741.75;5064049;28;20221;-67
2023/09/04 03:54:26;;;;;;;5.30;4.90;;;;;;;-141.26;100.00;62741.75;5080585;28;20251;-67
2023/09/04 03:56:53;;;;;;;5.70;5.23;;;;;;;-141.26;100.00;62741.75;5063733;28;20225;-67
2023/09/04 03:59:21;;;;;;;13.17;6.30;;;;;;;-141.26;100.00;62741.75;5063867;28;20317;-67
2023/09/04 04:01:48;;;;;;;7.30;6.17;;;;;;;-141.26;100.00;62741.75;5081973;28;20230;-67
2023/09/04 04:04:15;;;;;;;6.20;5.70;;;;;;;-141.26;100.00;62741.75;5063884;28;20236;-67
2023/09/04 04:06:42;;;;;;;6.17;5.67;;;;;;;-141.26;100.00;62741.75;5080434;28;20230;-67
2023/09/04 04:09:13;;;;;;;6.30;5.10;;;;;;;-141.26;100.00;62741.75;5063426;28;20236;-67
2023/09/04 04:11:40;;;;;;;6.27;5.67;;;;;;;-141.26;100.00;62741.75;5080525;28;20214;-67
2023/09/04 04:14:07;;;;;;;6.00;5.17;;;;;;;-141.26;100.00;62741.75;5063639;28;20226;-67
2023/09/04 04:16:36;;;;;;;5.60;5.10;;;;;;;-141.26;100.00;62741.75;5063591;28;20229;-67
2023/09/04 04:19:04;;;;;;;4.80;4.40;;;;;;;-141.26;100.00;62741.75;5080420;28;20310;-67
2023/09/04 04:21:31;;;;;;;10.17;4.63;;;;;;;-141.26;100.00;62741.75;5080283;28;20264;-67
2023/09/04 04:23:58;;;;;;;4.80;4.40;;;;;;;-141.26;100.00;62741.75;5080080;28;20218;-67
2023/09/04 04:26:26;;;;;;;7.57;5.20;;;;;;;-141.26;100.00;62741.75;5062549;28;20349;-67
2023/09/04 04:28:53;;;;;;;6.77;6.17;;;;;;;-141.26;100.00;62741.75;5063325;28;20227;-67
2023/09/04 04:31:22;;;;;;;24.30;6.50;;;;;;;-141.26;100.00;62741.75;5063388;28;20218;-67
2023/09/04 04:33:49;;;;;;;6.23;5.73;;;;;;;-141.26;100.00;62741.75;5063503;28;20735;-67
2023/09/04 04:36:16;;;;;;;6.33;5.73;;;;;;;-141.26;100.00;62741.75;5063422;28;20218;-66
2023/09/04 04:38:45;;;;;;;6.27;5.77;;;;;;;-141.26;100.00;62741.75;5063258;28;20214;-67
2023/09/04 04:41:13;;;;;;;5.50;5.00;;;;;;;-141.26;100.00;62741.75;5063312;28;20253;-67
2023/09/04 04:43:42;;;;;;;22.57;5.77;;;;;;;-141.26;100.00;62741.75;5063292;28;20249;-67
2023/09/04 04:46:12;;;;;;;157.77;8.77;;;;;;;-141.26;100.00;62741.75;5062957;28;20236;-67
2023/09/04 04:48:40;;;;;;;58.90;7.33;;;;;;;-141.26;100.00;62741.75;5046757;28;20221;-66
2023/09/04 04:51:07;;;;;;;14.67;6.00;;;;;;;-141.26;100.00;62741.75;5063181;28;20222;-66
2023/09/04 04:53:36;;;;;;;6.27;5.67;;;;;;;-141.26;100.00;62741.75;5080949;28;20253;-66
2023/09/04 04:56:03;;;;;;;6.53;5.93;;;;;;;-141.26;100.00;62741.75;5066604;28;20230;-66
2023/09/04 04:58:30;;;;;;;6.17;5.67;;;;;;;-141.26;100.00;62741.75;5066708;28;20268;-67
2023/09/04 05:00:59;;;;;;;5.93;5.43;;;;;;;-141.26;100.00;62741.75;5083401;28;20232;-67
2023/09/04 05:03:26;;;;;;;5.87;5.37;;;;;;;-141.26;100.00;62741.75;5083401;28;20218;-67
2023/09/04 05:05:53;;;;;;;5.50;4.37;;;;;;;-141.26;100.00;62741.75;5084613;28;20218;-67
2023/09/04 05:08:20;;;;;;;5.70;5.20;;;;;;;-141.26;100.00;62741.75;5066313;28;20224;-67
2023/09/04 05:10:59;;;;;;;6.17;5.67;;;;;;;-141.26;100.00;62741.75;5066517;28;20222;-67
2023/09/04 05:13:26;;;;;;;4.60;4.30;;;;;;;-141.26;100.00;62741.75;5066423;28;20225;-67
2023/09/04 05:15:53;;;;;;;4.20;3.90;;;;;;;-141.26;100.00;62741.75;5066365;28;20228;-66
2023/09/04 05:18:23;;;;;;;4.17;3.87;;;;;;;-141.26;100.00;62741.75;5066330;28;20221;-67
2023/09/04 05:20:50;;;;;;;4.47;4.03;;;;;;;-141.26;100.00;62741.75;5083095;28;20380;-67
2023/09/04 05:23:17;;;;;;;4.40;4.00;;;;;;;-141.26;100.00;62741.75;5066127;28;20226;-67
2023/09/04 05:25:49;;;;;;;3.97;3.57;;;;;;;-141.26;100.00;62741.75;5065868;28;20262;-67
2023/09/04 05:28:16;;;;;;;4.77;3.80;;;;;;;-141.26;100.00;62741.75;5065891;28;20261;-67
2023/09/04 05:30:43;;;;;;;3.90;3.60;;;;;;;-141.26;100.00;62741.75;5066058;28;20218;-67
2023/09/04 05:33:10;;;;;;;5.67;3.90;;;;;;;-141.26;100.00;62741.75;5066044;28;20301;-67
2023/09/04 05:35:39;;;;;;;8.40;3.90;;;;;;;-141.26;100.00;62741.75;5065838;28;20313;-67
2023/09/04 05:38:06;;;;;;;4.73;4.07;;;;;;;-141.26;100.00;62741.75;5065800;28;20253;-67
2023/09/04 05:40:33;;;;;;;6.60;4.90;;;;;;;-141.26;100.00;62741.75;5065806;28;20249;-67
2023/09/04 05:43:00;;;;;;;8.60;4.70;;;;;;;-141.26;100.00;62741.75;5065972;28;20285;-67
2023/09/04 05:45:28;;;;;;;7.40;5.40;;;;;;;-141.26;100.00;62741.75;5082648;28;20230;-67
2023/09/04 05:47:55;;;;;;;7.30;5.20;;;;;;;-141.26;100.00;62741.75;5082611;28;20221;-67
2023/09/04 05:50:22;;;;;;;10.87;5.70;;;;;;;-141.26;100.00;62741.75;5082643;28;20217;-67
2023/09/04 05:52:53;;;;;;;7.70;5.73;;;;;;;-141.26;100.00;62741.75;5082710;28;20222;-67
2023/09/04 05:55:20;;;;;;;10.63;6.47;;;;;;;-141.26;100.00;62741.75;5065731;28;20214;-67
2023/09/04 05:57:47;;;;;;;8.30;6.40;;;;;;;-141.26;100.00;62741.75;5065735;28;20218;-67
2023/09/04 06:00:14;;;;;;;7.17;6.47;;;;;;;-141.26;100.00;62741.75;5065631;28;20246;-67
2023/09/04 06:02:42;;;;;;;6.90;6.30;;;;;;;-141.26;100.00;62741.75;5065529;28;20249;-67
2023/09/04 06:05:10;;;;;;;7.27;6.67;;;;;;;-141.26;100.00;62741.75;5083080;28;20241;-67
2023/09/04 06:07:37;;;;;;;8.50;7.70;;;;;;;-141.26;100.00;62741.75;5083688;28;20225;-67
2023/09/04 06:10:06;;;;;;;15.40;7.47;;;;;;;-141.26;100.00;62741.75;5082379;28;20268;-67
2023/09/04 06:12:33;;;;;;;9.17;8.37;;;;;;;-141.26;100.00;62741.75;5083630;28;20214;-67
2023/09/04 06:15:00;;;;;;;8.40;7.60;;;;;;;-141.26;100.00;62741.75;5065283;28;20226;-67
2023/09/04 06:17:28;;;;;;;8.80;7.90;;;;;;;-141.26;100.00;62741.75;5065352;28;20246;-67
2023/09/04 06:19:55;;;;;;;8.87;8.03;;;;;;;-141.26;100.00;62741.75;5065042;28;20268;-67
2023/09/04 06:22:22;;;;;;;9.40;8.37;;;;;;;-141.26;100.00;62741.75;5065143;28;20222;-67
2023/09/04 06:24:50;;;;;;;7.97;7.17;;;;;;;-141.26;100.00;62741.75;5065194;28;20268;-67
2023/09/04 06:27:18;;;;;;;8.67;7.77;;;;;;;-141.26;100.00;62741.75;5064220;28;20338;-67
2023/09/04 06:29:45;;;;;;;8.60;7.47;;;;;;;-141.26;100.00;62741.75;5065103;28;20218;-67
2023/09/04 06:32:14;;;;;;;19.17;8.50;;;;;;;-141.26;100.00;62741.75;5065096;28;20275;-67
2023/09/04 06:34:41;;;;;;;7.20;6.50;;;;;;;-141.26;100.00;62741.75;5064918;28;20224;-67
2023/09/04 06:37:08;;;;;;;7.97;7.20;;;;;;;-141.26;100.00;62741.75;5064932;28;20222;-67
2023/09/04 06:39:35;;;;;;;9.17;7.57;;;;;;;-141.26;100.00;62741.75;5064944;28;20309;-67
2023/09/04 06:42:03;;;;;;;8.30;7.50;;;;;;;-141.26;100.00;62741.75;5081871;28;20232;-67
2023/09/04 06:44:33;;;;;;;7.73;6.93;;;;;;;-141.26;100.00;62741.75;5064984;28;20245;-67
2023/09/04 06:47:00;;;;;;;8.20;7.40;;;;;;;-141.26;100.00;62741.75;5064816;28;20230;-67
2023/09/04 06:49:28;;;;;;;6.90;6.30;;;;;;;-141.26;100.00;62741.75;5064651;28;20278;-67
2023/09/04 06:51:55;;;;;;;6.73;6.03;;;;;;;-141.26;100.00;62741.75;5064781;28;20225;-67
2023/09/04 06:54:22;;;;;;;6.37;5.80;;;;;;;-141.26;100.00;62741.75;5064570;28;20248;-67
2023/09/04 06:56:49;;;;;;;6.67;6.07;;;;;;;-141.26;100.00;62741.75;5064729;28;20230;-67
2023/09/04 06:59:16;;;;;;;6.97;6.27;;;;;;;-141.26;100.00;62741.75;5083076;28;20214;-67
2023/09/04 07:01:44;;;;;;;5.70;5.20;;;;;;;-141.26;100.00;62741.75;5064733;28;20224;-67
2023/09/04 07:04:11;;;;;;;5.73;5.13;;;;;;;-141.26;100.00;62741.75;5064560;28;20223;-67
2023/09/04 07:06:38;;;;;;;6.97;5.30;;;;;;;-141.26;100.00;62741.75;5064341;28;20238;-67
2023/09/04 07:09:05;;;;;;;6.50;5.70;;;;;;;-141.26;100.00;62741.75;5081337;28;20230;-67
2023/09/04 07:11:33;;;;;;;6.60;5.87;;;;;;;-141.26;100.00;62741.75;5081343;28;20237;-67
2023/09/04 07:14:00;;;;;;;8.53;6.10;;;;;;;-141.26;100.00;62741.75;5064582;28;20222;-67
2023/09/04 07:16:27;;;;;;;6.60;6.00;;;;;;;-141.26;100.00;62741.75;5081320;28;20251;-67
2023/09/04 07:18:55;;;;;;;6.73;6.13;;;;;;;-141.26;100.00;62741.75;5082620;28;20222;-67
2023/09/04 07:21:22;;;;;;;6.37;5.83;;;;;;;-141.26;100.00;62741.75;5064379;28;20371;-67
2023/09/04 07:23:49;;;;;;;6.87;6.00;;;;;;;-141.26;100.00;62741.75;5081235;28;20221;-67
2023/09/04 07:26:16;;;;;;;6.83;5.90;;;;;;;-141.26;100.00;62741.75;5081864;28;20366;-67
2023/09/04 07:28:43;;;;;;;8.07;6.63;;;;;;;-141.26;100.00;62741.75;5081105;28;20253;-67
2023/09/04 07:31:17;;;;;;;6.50;5.90;;;;;;;-141.26;100.00;62741.75;5064192;28;20280;-67
2023/09/04 07:33:45;;;;;;;6.33;5.73;;;;;;;-141.26;100.00;62741.75;5064015;28;20224;-67
2023/09/04 07:36:13;;;;;;;7.30;5.70;;;;;;;-141.26;100.00;62741.75;5081073;28;20274;-67
2023/09/04 07:38:40;;;;;;;6.93;5.90;;;;;;;-141.26;100.00;62741.75;5081023;28;20223;-67
2023/09/04 07:41:07;;;;;;;6.27;5.60;;;;;;;-141.26;100.00;62741.75;5064045;28;20232;-67
2023/09/04 07:43:35;;;;;;;6.00;5.17;;;;;;;-141.26;100.00;62741.75;5080972;28;20274;-67
2023/09/04 07:46:03;;;;;;;6.13;5.40;;;;;;;-141.26;100.00;62741.75;5063869;28;20228;-67
2023/09/04 07:48:30;;;;;;;5.43;4.93;;;;;;;-141.26;100.00;62741.75;5063789;28;20222;-67
2023/09/04 07:50:58;;;;;;;5.27;4.77;;;;;;;-141.26;100.00;62741.75;5064001;28;20248;-67
2023/09/04 07:53:26;;;;;;;5.40;4.90;;;;;;;-141.26;100.00;62741.75;5082129;28;20214;-67
2023/09/04 07:55:54;;;;;;;5.27;4.77;;;;;;;-141.26;100.00;62741.75;5063880;28;20323;-67
2023/09/04 07:58:21;;;;;;;5.63;5.13;;;;;;;-141.26;100.00;62741.75;5080620;28;20218;-67
2023/09/04 08:00:50;;;;;;;5.37;4.87;;;;;;;-141.26;100.00;62741.75;5082044;28;20220;-67
2023/09/04 08:03:17;;;;;;;4.77;4.37;;;;;;;-141.26;100.00;62741.75;5063734;28;20302;-67
2023/09/04 08:05:44;;;;;;;5.10;4.70;;;;;;;-141.26;100.00;62741.75;5082151;28;20248;-67
2023/09/04 08:08:12;;;;;;;4.90;4.50;;;;;;;-141.26;100.00;62741.75;5081845;28;20288;-67
2023/09/04 08:10:43;;;;;;;5.10;4.20;;;;;;;-141.26;100.00;62741.75;5063635;28;20218;-67
2023/09/04 08:13:11;;;;;;;3.50;3.27;;;;;;;-141.26;100.00;62741.75;5082068;28;20281;-67
2023/09/04 08:15:38;;;;;;;3.30;3.10;;;;;;;-141.26;100.00;62741.75;5080384;28;20333;-67
2023/09/04 08:18:06;;;;;;;3.20;2.97;;;;;;;-141.26;100.00;62741.75;5081925;28;20297;-67
2023/09/04 08:20:34;;;;;;;3.37;3.07;;;;;;;-141.26;100.00;62741.75;5063457;28;20229;-67
2023/09/04 08:23:01;;;;;;;5.27;3.40;;;;;;;-141.26;100.00;62741.75;5081866;28;20222;-67
2023/09/04 08:25:28;;;;;;;3.90;2.87;;;;;;;-141.26;100.00;62741.75;5081837;28;20268;-66
2023/09/04 08:27:57;;;;;;;4.57;4.17;;;;;;;-141.26;100.00;62741.75;5080804;28;20327;-67
2023/09/04 08:30:24;;;;;;;6.87;4.40;;;;;;;-141.26;100.00;62741.75;5080185;28;20218;-67
2023/09/04 08:32:51;;;;;;;4.90;4.50;;;;;;;-141.26;100.00;62741.75;5081620;28;20228;-67
2023/09/04 08:35:18;;;;;;;6.53;4.07;;;;;;;-141.26;100.00;62741.75;5063364;28;20283;-67
2023/09/04 08:37:45;;;;;;;4.00;3.70;;;;;;;-141.26;100.00;62741.75;5081635;28;20218;-67
2023/09/04 08:40:13;;;;;;;3.77;3.47;;;;;;;-141.26;100.00;62741.75;5063236;28;20317;-67
2023/09/04 08:42:41;;;;;;;4.03;3.73;;;;;;;-141.26;100.00;62741.75;5063217;28;20214;-67
2023/09/04 08:45:10;;;;;;;3.70;3.47;;;;;;;-141.26;100.00;62741.75;5079966;28;20286;-67
2023/09/04 08:47:40;;;;;;;3.67;3.47;;;;;;;-141.26;100.00;62741.75;5079995;28;20234;-67
2023/09/04 08:50:08;;;;;;;4.53;4.13;;;;;;;-141.26;100.00;62741.75;5063351;28;20252;-67
2023/09/04 08:52:37;;;;;;;4.80;4.00;;;;;;;-141.26;100.00;62741.75;5079903;28;20222;-67
2023/09/04 08:55:06;;;;;;;3.50;3.30;;;;;;;-141.26;100.00;62741.75;5063177;28;20317;-67
2023/09/04 08:57:33;;;;;;;9.60;2.83;;;;;;;-141.26;100.00;62741.75;5081349;28;20260;-67
2023/09/04 09:00:00;;;;;;;3.30;3.00;;;;;;;-141.26;100.00;62741.75;5062891;28;20308;-67
2023/09/04 09:02:30;;;;;;;4.67;3.57;;;;;;;-141.26;100.00;62741.75;5063130;28;20235;-67
2023/09/04 09:04:58;;;;;;;2.73;2.53;;;;;;;-141.26;100.00;62741.75;5081288;28;20269;-67
2023/09/04 09:07:27;;;;;;;3.07;2.87;;;;;;;-141.26;100.00;62741.75;5062816;28;20234;-67
2023/09/04 09:09:59;;;;;;;2.73;2.50;;;;;;;-141.26;100.00;62741.75;5079864;28;20217;-67
2023/09/04 09:12:26;;;;;;;3.53;3.23;;;;;;;-141.26;100.00;62741.75;5063034;28;20222;-67
2023/09/04 09:14:54;;;;;;;3.00;2.80;;;;;;;-141.26;100.00;62741.75;5079729;28;20230;-67
2023/09/04 09:17:21;;;;;;;2.90;2.30;;;;;;;-141.26;100.00;62741.75;5062941;28;20218;-67
2023/09/04 09:19:50;;;;;;;2.67;2.33;;;;;;;-141.26;100.00;62741.75;5079586;28;20217;-67
2023/09/04 09:22:18;;;;;;;2.57;2.27;;;;;;;-141.26;100.00;62741.75;5062989;28;20268;-67
2023/09/04 09:24:53;;;;;;;2.37;2.27;;;;;;;-141.26;100.00;62741.75;5062957;28;20226;-67
2023/09/04 09:27:21;;;;;;;2.17;2.00;;;;;;;-141.26;100.00;62741.75;5062230;28;20295;-67
2023/09/04 09:29:49;;;;;;;3.90;2.20;;;;;;;-141.26;100.00;62741.75;5062614;28;20249;-67
2023/09/04 09:32:18;;;;;;;1.60;1.50;;;;;;;-141.26;100.00;62741.75;5080982;28;20218;-67
2023/09/04 09:34:54;;;;;;;1.70;1.60;;;;;;;-141.26;100.00;62741.75;5080854;28;20226;-67
2023/09/04 09:37:24;;;;;;;2.50;1.90;;;;;;;-141.26;100.00;62741.75;5080820;28;20218;-67
2023/09/04 09:39:52;;;;;;;1.70;1.60;;;;;;;-141.26;100.00;62741.75;5062859;28;20284;-67
2023/09/04 09:42:20;;;;;;;1.63;1.53;;;;;;;-141.26;100.00;62741.75;5065873;28;20255;-67
2023/09/04 09:44:47;;;;;;;1.30;1.20;;;;;;;-141.26;100.00;62741.75;5065682;28;20313;-67
2023/09/04 09:47:15;;;;;;;2.33;1.30;;;;;;;-141.26;100.00;62741.75;5065787;28;20226;-67
2023/09/04 09:49:43;;;;;;;1.40;1.30;;;;;;;-141.26;100.00;62741.75;5084297;28;20335;-67
2023/09/04 09:52:12;;;;;;;1.53;1.30;;;;;;;-141.26;100.00;62741.75;5084100;28;20214;-67
2023/09/04 09:54:40;;;;;;;1.40;1.30;;;;;;;-141.26;100.00;62741.75;5082722;28;20221;-67
2023/09/04 09:57:08;;;;;;;2.13;1.47;;;;;;;-141.26;100.00;62741.75;5083896;28;20289;-67
2023/09/04 09:59:38;;;;;;;1.47;1.37;;;;;;;-141.26;100.00;62741.75;5065583;28;20233;-67
2023/09/04 10:02:07;;;;;;;1.93;1.40;;;;;;;-141.26;100.00;62741.75;5082610;28;20222;-67
2023/09/04 10:04:35;;;;;;;1.63;1.43;;;;;;;-141.26;100.00;62741.75;5065768;28;20218;-67
2023/09/04 10:07:03;;;;;;;2.50;1.57;;;;;;;-141.26;100.00;62741.75;5065433;28;20257;-67
2023/09/04 10:09:38;;;;;;;6.20;1.50;;;;;;;-141.26;100.00;62741.75;5065614;28;20237;-67
2023/09/04 10:12:09;;;;;;;1.40;1.40;;;;;;;-141.26;100.00;62741.75;5065501;28;20218;-67
2023/09/04 10:14:40;;;;;;;2.30;1.30;;;;;;;-141.26;100.00;62741.75;5065579;28;20252;-67
2023/09/04 10:17:16;;;;;;;1.87;1.30;;;;;;;-141.26;100.00;62741.75;5065428;28;20325;-67
2023/09/04 10:19:44;;;;;;;1.23;1.23;;;;;;;-141.26;100.00;62741.75;5083864;28;20213;-67
2023/09/04 10:22:19;;;;;;;2.70;1.40;;;;;;;-141.26;100.00;62741.75;5065237;28;20313;-67
2023/09/04 10:24:59;;;;;;;1.30;1.30;;;;;;;-141.26;100.00;62741.75;5082149;28;20221;-67
2023/09/04 10:27:30;;;;;;;1.23;1.23;;;;;;;-141.26;100.00;62741.75;5064441;28;20225;-67
2023/09/04 10:30:04;;;;;;;1.43;1.33;;;;;;;-141.26;100.00;62741.75;5083459;28;20210;-67
2023/09/04 10:32:32;;;;;;;2.27;1.43;;;;;;;-141.26;100.00;62741.75;5065238;28;20218;-67
2023/09/04 10:34:59;;;;;;;1.83;1.30;;;;;;;-141.26;100.00;62741.75;5081741;28;20281;-67
2023/09/04 10:37:29;;;;;;;2.63;1.30;;;;;;;-141.26;100.00;62741.75;5083476;28;20367;-67
2023/09/04 10:39:58;;;;;;;1.93;1.50;;;;;;;-141.26;100.00;62741.75;5083248;28;20205;-67
2023/09/04 10:42:27;;;;;;;1.47;1.30;;;;;;;-141.26;100.00;62741.75;5083089;28;20218;-67
2023/09/04 10:44:56;;;;;;;2.03;1.37;;;;;;;-141.26;100.00;62741.75;5065029;28;20237;-67
2023/09/04 10:47:23;;;;;;;1.50;1.40;;;;;;;-141.26;100.00;62741.75;5064795;28;20324;-67
2023/09/04 10:49:50;;;;;;;1.17;1.10;;;;;;;-141.26;100.00;62741.75;5064803;28;20218;-67
2023/09/04 10:52:17;;;;;;;1.07;1.07;;;;;;;-141.26;100.00;62741.75;5064463;28;20317;-67
2023/09/04 10:54:44;;;;;;;1.40;1.20;;;;;;;-141.26;100.00;62741.75;5064761;28;20229;-67
2023/09/04 10:57:15;;;;;;;1.40;1.30;;;;;;;-141.26;100.00;62741.75;5081569;28;20309;-67
2023/09/04 11:00:02;;;;;;;2.10;1.10;;;;;;;-141.26;100.00;62741.75;5064754;28;20218;-67
2023/09/04 11:02:30;;;;;;;1.30;1.30;;;;;;;-141.26;100.00;62741.75;5064658;28;20305;-67
2023/09/04 11:04:58;;;;;;;1.10;1.10;;;;;;;-141.26;100.00;62741.75;5064635;28;20272;-67
2023/09/04 11:07:27;;;;;;;1.40;1.03;;;;;;;-141.26;100.00;62741.75;5081395;28;20218;-67
2023/09/04 11:10:02;;;;;;;1.27;1.27;;;;;;;-141.26;100.00;62741.75;5064382;28;20224;-67
2023/09/04 11:12:35;;;;;;;1.90;1.20;;;;;;;-141.26;100.00;62741.75;5083067;28;20202;-67
2023/09/04 11:15:03;;;;;;;1.23;1.23;;;;;;;-141.26;100.00;62741.75;5081258;28;20222;-67